ASA73 PAJN-PANC
Flight info
| Callsign | ASA73 |
|---|---|
| Flight time | 1h 32m |
| Altitude | 38000 |
| Route | CHLKT2 ALATY JOH PTERS3 |
| Aircraft | B38M/M-SDE1FGHILORVWXY/HB1 |
Departure
| Time | 2026-04-23 19:16 |
|---|---|
| Airport | Juneau International Airport (PAJN) |
Arrival
| Time | 2026-04-23 20:48 |
|---|---|
| Airport | Ted Stevens Anchorage International Airport (PANC) |
| Time | Latitude | Longitude | Altitude | Speed | Heading |
|---|---|---|---|---|---|
| 2026-04-23 18:58 | 58.35873 | -134.58462 | 36 ft | 0 kts | 102° |
| 2026-04-23 19:08 | 58.35875 | -134.58480 | 36 ft | 2 kts | 102° |
| 2026-04-23 19:08 | 58.35878 | -134.58507 | 35 ft | 2 kts | 88° |
| 2026-04-23 19:09 | 58.35877 | -134.58535 | 36 ft | 2 kts | 86° |
| 2026-04-23 19:09 | 58.35876 | -134.58563 | 35 ft | 2 kts | 79° |
| 2026-04-23 19:09 | 58.35874 | -134.58584 | 36 ft | 1 kts | 101° |
| 2026-04-23 19:09 | 58.35876 | -134.58596 | 36 ft | 1 kts | 138° |
| 2026-04-23 19:10 | 58.35879 | -134.58600 | 36 ft | 0 kts | 152° |
| 2026-04-23 19:11 | 58.35876 | -134.58598 | 36 ft | 2 kts | 158° |
| 2026-04-23 19:11 | 58.35848 | -134.58596 | 36 ft | 7 kts | 187° |
| 2026-04-23 19:12 | 58.35810 | -134.58608 | 36 ft | 9 kts | 189° |
| 2026-04-23 19:12 | 58.35759 | -134.58707 | 36 ft | 10 kts | 279° |
| 2026-04-23 19:12 | 58.35778 | -134.58846 | 35 ft | 12 kts | 285° |
| 2026-04-23 19:12 | 58.35801 | -134.59013 | 36 ft | 14 kts | 284° |
| 2026-04-23 19:13 | 58.35827 | -134.59201 | 36 ft | 15 kts | 285° |
| 2026-04-23 19:13 | 58.35855 | -134.59400 | 36 ft | 16 kts | 284° |
| 2026-04-23 19:13 | 58.35878 | -134.59576 | 36 ft | 11 kts | 276° |
| 2026-04-23 19:13 | 58.35859 | -134.59678 | 36 ft | 7 kts | 218° |
| 2026-04-23 19:14 | 58.35816 | -134.59711 | 35 ft | 6 kts | 195° |
| 2026-04-23 19:14 | 58.35793 | -134.59715 | 35 ft | 1 kts | 163° |
| 2026-04-23 19:14 | 58.35792 | -134.59713 | 35 ft | 0 kts | 156° |
| 2026-04-23 19:14 | 58.35783 | -134.59691 | 36 ft | 4 kts | 115° |
| 2026-04-23 19:15 | 58.35780 | -134.59668 | 36 ft | 0 kts | 105° |
| 2026-04-23 19:15 | 58.35759 | -134.59517 | 37 ft | 47 kts | 105° |
| 2026-04-23 19:16 | 58.35596 | -134.58351 | 34 ft | 133 kts | 105° |
| 2026-04-23 19:16 | 58.35302 | -134.56256 | 286 ft | 183 kts | 105° |
| 2026-04-23 19:16 | 58.34945 | -134.53864 | 1352 ft | 191 kts | 110° |
| 2026-04-23 19:17 | 58.33206 | -134.49456 | 3105 ft | 230 kts | 137° |
| 2026-04-23 19:17 | 58.32018 | -134.47324 | 4125 ft | 242 kts | 138° |
| 2026-04-23 19:17 | 58.30749 | -134.45018 | 4958 ft | 262 kts | 136° |
| 2026-04-23 19:17 | 58.29475 | -134.42440 | 5962 ft | 271 kts | 133° |
| 2026-04-23 19:18 | 58.28170 | -134.39744 | 6927 ft | 285 kts | 133° |
| 2026-04-23 19:18 | 58.26795 | -134.36900 | 7753 ft | 298 kts | 132° |
| 2026-04-23 19:18 | 58.25393 | -134.33996 | 8847 ft | 300 kts | 132° |
| 2026-04-23 19:18 | 58.23885 | -134.31178 | 9803 ft | 308 kts | 142° |
| 2026-04-23 19:19 | 58.19812 | -134.28607 | 11289 ft | 324 kts | 189° |
| 2026-04-23 19:19 | 58.17650 | -134.29770 | 12095 ft | 323 kts | 210° |
| 2026-04-23 19:20 | 58.14527 | -134.35545 | 14038 ft | 318 kts | 247° |
| 2026-04-23 19:20 | 58.13929 | -134.39549 | 14864 ft | 318 kts | 266° |
| 2026-04-23 19:20 | 58.14098 | -134.43696 | 15678 ft | 317 kts | 286° |
| 2026-04-23 19:20 | 58.14863 | -134.47589 | 16335 ft | 325 kts | 292° |
| 2026-04-23 19:21 | 58.15695 | -134.51657 | 16881 ft | 335 kts | 292° |
| 2026-04-23 19:21 | 58.17407 | -134.59920 | 18463 ft | 340 kts | 292° |
| 2026-04-23 19:21 | 58.18330 | -134.64061 | 19149 ft | 342 kts | 300° |
| 2026-04-23 19:22 | 58.19822 | -134.67573 | 19774 ft | 345 kts | 315° |
| 2026-04-23 19:22 | 58.21550 | -134.70779 | 20353 ft | 349 kts | 314° |
| 2026-04-23 19:22 | 58.25075 | -134.77252 | 21560 ft | 356 kts | 315° |
| 2026-04-23 19:23 | 58.26871 | -134.80517 | 22158 ft | 359 kts | 315° |
| 2026-04-23 19:23 | 58.28687 | -134.83811 | 22760 ft | 362 kts | 315° |
| 2026-04-23 19:23 | 58.30513 | -134.87123 | 23329 ft | 365 kts | 315° |
| 2026-04-23 19:24 | 58.34214 | -134.93847 | 24419 ft | 371 kts | 315° |
| 2026-04-23 19:24 | 58.36083 | -134.97252 | 24889 ft | 373 kts | 315° |
| 2026-04-23 19:24 | 58.39863 | -135.04150 | 25808 ft | 379 kts | 315° |
| 2026-04-23 19:25 | 58.43551 | -135.11304 | 26648 ft | 382 kts | 303° |
| 2026-04-23 19:25 | 58.46438 | -135.19874 | 27547 ft | 386 kts | 301° |
| 2026-04-23 19:26 | 58.49360 | -135.28575 | 28405 ft | 391 kts | 301° |
| 2026-04-23 19:26 | 58.50825 | -135.32963 | 28809 ft | 393 kts | 301° |
| 2026-04-23 19:27 | 58.53777 | -135.41836 | 29655 ft | 397 kts | 301° |
| 2026-04-23 19:27 | 58.57750 | -135.53827 | 30700 ft | 404 kts | 301° |
| 2026-04-23 19:28 | 58.60767 | -135.62974 | 31396 ft | 407 kts | 301° |
| 2026-04-23 19:28 | 58.63789 | -135.72172 | 32224 ft | 407 kts | 301° |
| 2026-04-23 19:29 | 58.65300 | -135.76785 | 32538 ft | 410 kts | 300° |
| 2026-04-23 19:29 | 58.68343 | -135.86104 | 33205 ft | 412 kts | 300° |
| 2026-04-23 19:30 | 58.71376 | -135.95424 | 34072 ft | 409 kts | 300° |
| 2026-04-23 19:30 | 58.72879 | -136.00059 | 34518 ft | 408 kts | 300° |
| 2026-04-23 19:30 | 58.75873 | -136.09320 | 35186 ft | 407 kts | 300° |
| 2026-04-23 19:31 | 58.77349 | -136.13893 | 35490 ft | 407 kts | 300° |
| 2026-04-23 19:31 | 58.78840 | -136.18521 | 35844 ft | 405 kts | 299° |
| 2026-04-23 19:31 | 58.80322 | -136.23136 | 36181 ft | 404 kts | 299° |
| 2026-04-23 19:31 | 58.81800 | -136.27752 | 36511 ft | 403 kts | 299° |
| 2026-04-23 19:32 | 58.83275 | -136.32362 | 36818 ft | 403 kts | 299° |
| 2026-04-23 19:32 | 58.84743 | -136.36955 | 37112 ft | 402 kts | 300° |
| 2026-04-23 19:32 | 58.86208 | -136.41554 | 37401 ft | 401 kts | 299° |
| 2026-04-23 19:32 | 58.87669 | -136.46146 | 37692 ft | 401 kts | 299° |
| 2026-04-23 19:33 | 58.89126 | -136.50732 | 37969 ft | 400 kts | 299° |
| 2026-04-23 19:33 | 58.90580 | -136.55321 | 38236 ft | 400 kts | 299° |
| 2026-04-23 19:33 | 58.93485 | -136.64515 | 38549 ft | 401 kts | 299° |
| 2026-04-23 19:34 | 58.96361 | -136.73650 | 38553 ft | 400 kts | 300° |
| 2026-04-23 19:35 | 59.00701 | -136.87510 | 38495 ft | 400 kts | 298° |
| 2026-04-23 19:35 | 59.03581 | -136.96753 | 38506 ft | 400 kts | 298° |
| 2026-04-23 19:36 | 59.06456 | -137.06013 | 38484 ft | 400 kts | 298° |
| 2026-04-23 19:36 | 59.09323 | -137.15286 | 38472 ft | 400 kts | 298° |
| 2026-04-23 19:37 | 59.12182 | -137.24569 | 38481 ft | 400 kts | 298° |
| 2026-04-23 19:37 | 59.15038 | -137.33881 | 38493 ft | 400 kts | 298° |
| 2026-04-23 19:38 | 59.17864 | -137.43132 | 38474 ft | 400 kts | 298° |
| 2026-04-23 19:38 | 59.20702 | -137.52458 | 38505 ft | 400 kts | 298° |
| 2026-04-23 19:39 | 59.23536 | -137.61811 | 38480 ft | 400 kts | 298° |
| 2026-04-23 19:39 | 59.26364 | -137.71177 | 38460 ft | 400 kts | 298° |
| 2026-04-23 19:40 | 59.29202 | -137.80623 | 38494 ft | 407 kts | 298° |
| 2026-04-23 19:40 | 59.32083 | -137.90242 | 38512 ft | 411 kts | 298° |
| 2026-04-23 19:41 | 59.34963 | -137.99902 | 38513 ft | 410 kts | 298° |
| 2026-04-23 19:41 | 59.37836 | -138.09571 | 38502 ft | 411 kts | 298° |
| 2026-04-23 19:42 | 59.40701 | -138.19248 | 38528 ft | 410 kts | 298° |
| 2026-04-23 19:42 | 59.42958 | -138.29438 | 38545 ft | 407 kts | 286° |
| 2026-04-23 19:43 | 59.44718 | -138.40077 | 38533 ft | 410 kts | 286° |
| 2026-04-23 19:43 | 59.46446 | -138.50748 | 38525 ft | 410 kts | 286° |
| 2026-04-23 19:44 | 59.48151 | -138.61374 | 38529 ft | 410 kts | 286° |
| 2026-04-23 19:44 | 59.49859 | -138.72083 | 38524 ft | 410 kts | 286° |
| 2026-04-23 19:45 | 59.51557 | -138.82801 | 38519 ft | 410 kts | 286° |
| 2026-04-23 19:45 | 59.53246 | -138.93526 | 38532 ft | 410 kts | 285° |
| 2026-04-23 19:46 | 59.54937 | -139.04330 | 38521 ft | 413 kts | 285° |
| 2026-04-23 19:46 | 59.56619 | -139.15136 | 38523 ft | 412 kts | 285° |
| 2026-04-23 19:47 | 59.58292 | -139.25966 | 38510 ft | 412 kts | 285° |
| 2026-04-23 19:47 | 59.59943 | -139.36717 | 38511 ft | 412 kts | 285° |
| 2026-04-23 19:48 | 59.61598 | -139.47564 | 38509 ft | 412 kts | 285° |
| 2026-04-23 19:48 | 59.63242 | -139.58400 | 38534 ft | 412 kts | 284° |
| 2026-04-23 19:49 | 59.64881 | -139.69282 | 38506 ft | 413 kts | 284° |
| 2026-04-23 19:49 | 59.66510 | -139.80165 | 38501 ft | 412 kts | 284° |
| 2026-04-23 19:50 | 59.68127 | -139.91035 | 38514 ft | 412 kts | 284° |
| 2026-04-23 19:50 | 59.69732 | -140.01902 | 38509 ft | 412 kts | 283° |
| 2026-04-23 19:51 | 59.71329 | -140.12785 | 38492 ft | 411 kts | 283° |
| 2026-04-23 19:51 | 59.72917 | -140.23675 | 38526 ft | 412 kts | 283° |
| 2026-04-23 19:52 | 59.74494 | -140.34562 | 38506 ft | 410 kts | 283° |
| 2026-04-23 19:52 | 59.76060 | -140.45442 | 38506 ft | 410 kts | 283° |
| 2026-04-23 19:53 | 59.77617 | -140.56336 | 38509 ft | 410 kts | 283° |
| 2026-04-23 19:53 | 59.79154 | -140.67166 | 38509 ft | 410 kts | 282° |
| 2026-04-23 19:54 | 59.80692 | -140.78074 | 38500 ft | 410 kts | 282° |
| 2026-04-23 19:54 | 59.82221 | -140.88987 | 38503 ft | 410 kts | 282° |
| 2026-04-23 19:55 | 59.83738 | -140.99892 | 38500 ft | 407 kts | 282° |
| 2026-04-23 19:55 | 59.85238 | -141.10753 | 38497 ft | 408 kts | 282° |
| 2026-04-23 19:56 | 59.86731 | -141.21634 | 38499 ft | 407 kts | 282° |
| 2026-04-23 19:56 | 59.88214 | -141.32516 | 38496 ft | 407 kts | 282° |
| 2026-04-23 19:57 | 59.89688 | -141.43414 | 38497 ft | 407 kts | 281° |
| 2026-04-23 19:57 | 59.91154 | -141.54325 | 38493 ft | 407 kts | 281° |
| 2026-04-23 19:58 | 59.92608 | -141.65219 | 38488 ft | 405 kts | 281° |
| 2026-04-23 19:58 | 59.94036 | -141.76002 | 38493 ft | 405 kts | 280° |
| 2026-04-23 19:59 | 59.95465 | -141.86865 | 38478 ft | 405 kts | 280° |
| 2026-04-23 19:59 | 59.96886 | -141.97742 | 38478 ft | 405 kts | 280° |
| 2026-04-23 20:00 | 59.98297 | -142.08624 | 38482 ft | 405 kts | 280° |
| 2026-04-23 20:00 | 59.99698 | -142.19504 | 38471 ft | 404 kts | 280° |
| 2026-04-23 20:01 | 60.01091 | -142.30398 | 38493 ft | 405 kts | 279° |
| 2026-04-23 20:01 | 60.02464 | -142.41224 | 38471 ft | 404 kts | 279° |
| 2026-04-23 20:02 | 60.03838 | -142.52135 | 38468 ft | 405 kts | 279° |
| 2026-04-23 20:02 | 60.05204 | -142.63056 | 38467 ft | 405 kts | 279° |
| 2026-04-23 20:03 | 60.06561 | -142.73990 | 38462 ft | 404 kts | 279° |
| 2026-04-23 20:03 | 60.07909 | -142.84935 | 38460 ft | 404 kts | 279° |
| 2026-04-23 20:04 | 60.09248 | -142.95883 | 38486 ft | 404 kts | 278° |
| 2026-04-23 20:04 | 60.10577 | -143.06841 | 38454 ft | 404 kts | 278° |
| 2026-04-23 20:05 | 60.11676 | -143.15960 | 38456 ft | 404 kts | 278° |
| 2026-04-23 20:05 | 60.13200 | -143.28707 | 38454 ft | 404 kts | 278° |
| 2026-04-23 20:06 | 60.14501 | -143.39680 | 38455 ft | 404 kts | 278° |
| 2026-04-23 20:06 | 60.15795 | -143.50676 | 38449 ft | 404 kts | 278° |
| 2026-04-23 20:07 | 60.17077 | -143.61667 | 38441 ft | 404 kts | 278° |
| 2026-04-23 20:07 | 60.18351 | -143.72662 | 38435 ft | 404 kts | 278° |
| 2026-04-23 20:08 | 60.19616 | -143.83673 | 38429 ft | 404 kts | 278° |
| 2026-04-23 20:08 | 60.20871 | -143.94679 | 38432 ft | 404 kts | 278° |
| 2026-04-23 20:09 | 60.22108 | -144.05624 | 38439 ft | 404 kts | 278° |
| 2026-04-23 20:09 | 60.23344 | -144.16643 | 38436 ft | 404 kts | 278° |
| 2026-04-23 20:10 | 60.24372 | -144.25885 | 38435 ft | 404 kts | 277° |
| 2026-04-23 20:10 | 60.25788 | -144.38713 | 38451 ft | 403 kts | 277° |
| 2026-04-23 20:11 | 60.26994 | -144.49722 | 38427 ft | 403 kts | 277° |
| 2026-04-23 20:11 | 60.28191 | -144.60756 | 38418 ft | 403 kts | 277° |
| 2026-04-23 20:12 | 60.29378 | -144.71792 | 38420 ft | 403 kts | 277° |
| 2026-04-23 20:12 | 60.30554 | -144.82817 | 38426 ft | 402 kts | 277° |
| 2026-04-23 20:13 | 60.31724 | -144.93877 | 38432 ft | 402 kts | 276° |
| 2026-04-23 20:13 | 60.32875 | -145.04853 | 38454 ft | 403 kts | 276° |
| 2026-04-23 20:14 | 60.34026 | -145.15922 | 38422 ft | 403 kts | 276° |
| 2026-04-23 20:14 | 60.35168 | -145.26999 | 38418 ft | 403 kts | 276° |
| 2026-04-23 20:15 | 60.36301 | -145.38082 | 38423 ft | 403 kts | 276° |
| 2026-04-23 20:15 | 60.37423 | -145.49163 | 38418 ft | 402 kts | 275° |
| 2026-04-23 20:16 | 60.38536 | -145.60251 | 38416 ft | 402 kts | 275° |
| 2026-04-23 20:16 | 60.39640 | -145.71350 | 38400 ft | 402 kts | 275° |
| 2026-04-23 20:17 | 60.40739 | -145.82470 | 38396 ft | 403 kts | 275° |
| 2026-04-23 20:17 | 60.41649 | -145.91737 | 38396 ft | 404 kts | 275° |
| 2026-04-23 20:18 | 60.42734 | -146.02882 | 38395 ft | 404 kts | 275° |
| 2026-04-23 20:18 | 60.43810 | -146.14028 | 38395 ft | 404 kts | 275° |
| 2026-04-23 20:19 | 60.44879 | -146.25199 | 38393 ft | 403 kts | 275° |
| 2026-04-23 20:19 | 60.45938 | -146.36358 | 38385 ft | 404 kts | 275° |
| 2026-04-23 20:20 | 60.46988 | -146.47528 | 38395 ft | 404 kts | 274° |
| 2026-04-23 20:20 | 60.48251 | -146.58673 | 38351 ft | 414 kts | 286° |
| 2026-04-23 20:20 | 60.49647 | -146.63785 | 38385 ft | 425 kts | 297° |
| 2026-04-23 20:21 | 60.51355 | -146.68716 | 38347 ft | 428 kts | 297° |
| 2026-04-23 20:21 | 60.54876 | -146.78484 | 38372 ft | 429 kts | 298° |
| 2026-04-23 20:21 | 60.56652 | -146.83325 | 37956 ft | 425 kts | 298° |
| 2026-04-23 20:22 | 60.58429 | -146.88156 | 37026 ft | 430 kts | 298° |
| 2026-04-23 20:22 | 60.60230 | -146.93049 | 36154 ft | 433 kts | 298° |
| 2026-04-23 20:22 | 60.62032 | -146.97942 | 35584 ft | 429 kts | 297° |
| 2026-04-23 20:22 | 60.63803 | -147.02762 | 35253 ft | 421 kts | 296° |
| 2026-04-23 20:23 | 60.65505 | -147.07572 | 34710 ft | 416 kts | 295° |
| 2026-04-23 20:23 | 60.67183 | -147.12348 | 34113 ft | 413 kts | 295° |
| 2026-04-23 20:23 | 60.68853 | -147.17088 | 33521 ft | 409 kts | 295° |
| 2026-04-23 20:23 | 60.70503 | -147.21781 | 33016 ft | 404 kts | 295° |
| 2026-04-23 20:24 | 60.72131 | -147.26419 | 32533 ft | 399 kts | 295° |
| 2026-04-23 20:24 | 60.73740 | -147.31012 | 32039 ft | 395 kts | 295° |
| 2026-04-23 20:24 | 60.75331 | -147.35560 | 31545 ft | 392 kts | 295° |
| 2026-04-23 20:24 | 60.76910 | -147.40086 | 31060 ft | 389 kts | 295° |
| 2026-04-23 20:25 | 60.78453 | -147.44515 | 30594 ft | 386 kts | 295° |
| 2026-04-23 20:25 | 60.80007 | -147.48984 | 30061 ft | 384 kts | 295° |
| 2026-04-23 20:25 | 60.81567 | -147.53478 | 29599 ft | 380 kts | 294° |
| 2026-04-23 20:25 | 60.83090 | -147.57876 | 29108 ft | 377 kts | 294° |
| 2026-04-23 20:26 | 60.84580 | -147.62188 | 28645 ft | 374 kts | 294° |
| 2026-04-23 20:26 | 60.86079 | -147.66531 | 28208 ft | 371 kts | 294° |
| 2026-04-23 20:26 | 60.87560 | -147.70833 | 27766 ft | 368 kts | 294° |
| 2026-04-23 20:26 | 60.89031 | -147.75110 | 27331 ft | 365 kts | 294° |
| 2026-04-23 20:27 | 60.90492 | -147.79368 | 26927 ft | 363 kts | 294° |
| 2026-04-23 20:27 | 60.91945 | -147.83607 | 26493 ft | 362 kts | 295° |
| 2026-04-23 20:27 | 60.93389 | -147.87833 | 26077 ft | 360 kts | 295° |
| 2026-04-23 20:27 | 60.94828 | -147.92051 | 25688 ft | 359 kts | 295° |
| 2026-04-23 20:28 | 60.96255 | -147.96249 | 25261 ft | 358 kts | 295° |
| 2026-04-23 20:28 | 60.97681 | -148.00438 | 24860 ft | 357 kts | 295° |
| 2026-04-23 20:28 | 60.99100 | -148.04618 | 24465 ft | 356 kts | 295° |
| 2026-04-23 20:28 | 61.00515 | -148.08791 | 24067 ft | 354 kts | 295° |
| 2026-04-23 20:29 | 61.01908 | -148.12912 | 23614 ft | 354 kts | 296° |
| 2026-04-23 20:29 | 61.03310 | -148.17063 | 23181 ft | 352 kts | 296° |
| 2026-04-23 20:29 | 61.04703 | -148.21195 | 22788 ft | 349 kts | 296° |
| 2026-04-23 20:29 | 61.06083 | -148.25294 | 22395 ft | 347 kts | 296° |
| 2026-04-23 20:30 | 61.07452 | -148.29375 | 21980 ft | 344 kts | 296° |
| 2026-04-23 20:30 | 61.10154 | -148.37442 | 21226 ft | 338 kts | 296° |
| 2026-04-23 20:30 | 61.11487 | -148.41427 | 20866 ft | 335 kts | 296° |
| 2026-04-23 20:31 | 61.12809 | -148.45384 | 20510 ft | 334 kts | 296° |
| 2026-04-23 20:31 | 61.14065 | -148.49419 | 20074 ft | 329 kts | 287° |
| 2026-04-23 20:31 | 61.14857 | -148.53766 | 19704 ft | 320 kts | 282° |
| 2026-04-23 20:31 | 61.15622 | -148.58085 | 19384 ft | 319 kts | 283° |
| 2026-04-23 20:32 | 61.16376 | -148.62355 | 19039 ft | 318 kts | 282° |
| 2026-04-23 20:32 | 61.17135 | -148.66669 | 18690 ft | 318 kts | 284° |
| 2026-04-23 20:32 | 61.17889 | -148.70965 | 18276 ft | 317 kts | 284° |
| 2026-04-23 20:32 | 61.18638 | -148.75242 | 17909 ft | 315 kts | 283° |
| 2026-04-23 20:33 | 61.19383 | -148.79497 | 17495 ft | 313 kts | 283° |
| 2026-04-23 20:33 | 61.20120 | -148.83729 | 17100 ft | 311 kts | 283° |
| 2026-04-23 20:33 | 61.20853 | -148.87946 | 16682 ft | 310 kts | 283° |
| 2026-04-23 20:33 | 61.21581 | -148.92139 | 16311 ft | 308 kts | 283° |
| 2026-04-23 20:34 | 61.22302 | -148.96305 | 15968 ft | 305 kts | 283° |
| 2026-04-23 20:34 | 61.23015 | -149.00434 | 15633 ft | 303 kts | 283° |
| 2026-04-23 20:34 | 61.23725 | -149.04549 | 15262 ft | 302 kts | 283° |
| 2026-04-23 20:34 | 61.24371 | -149.08656 | 14892 ft | 295 kts | 276° |
| 2026-04-23 20:35 | 61.24660 | -149.12832 | 14598 ft | 292 kts | 270° |
| 2026-04-23 20:35 | 61.24909 | -149.17032 | 14255 ft | 293 kts | 270° |
| 2026-04-23 20:35 | 61.25174 | -149.21234 | 13932 ft | 293 kts | 270° |
| 2026-04-23 20:35 | 61.25419 | -149.25447 | 13579 ft | 295 kts | 270° |
| 2026-04-23 20:36 | 61.25669 | -149.29689 | 13206 ft | 295 kts | 270° |
| 2026-04-23 20:36 | 61.25919 | -149.33925 | 12890 ft | 294 kts | 270° |
| 2026-04-23 20:36 | 61.26168 | -149.38135 | 12503 ft | 293 kts | 270° |
| 2026-04-23 20:36 | 61.26412 | -149.42296 | 11971 ft | 293 kts | 270° |
| 2026-04-23 20:37 | 61.26657 | -149.46478 | 11482 ft | 290 kts | 270° |
| 2026-04-23 20:37 | 61.26893 | -149.50595 | 11110 ft | 282 kts | 270° |
| 2026-04-23 20:37 | 61.27122 | -149.54561 | 10914 ft | 272 kts | 270° |
| 2026-04-23 20:37 | 61.27342 | -149.58438 | 10631 ft | 270 kts | 270° |
| 2026-04-23 20:38 | 61.27565 | -149.62372 | 10334 ft | 277 kts | 270° |
| 2026-04-23 20:38 | 61.27792 | -149.66375 | 9916 ft | 281 kts | 270° |
| 2026-04-23 20:38 | 61.28056 | -149.70402 | 9538 ft | 283 kts | 278° |
| 2026-04-23 20:38 | 61.28900 | -149.74159 | 9160 ft | 290 kts | 297° |
| 2026-04-23 20:39 | 61.29941 | -149.77706 | 8762 ft | 290 kts | 296° |
| 2026-04-23 20:39 | 61.30981 | -149.81278 | 8369 ft | 288 kts | 296° |
| 2026-04-23 20:39 | 61.32019 | -149.84836 | 7949 ft | 287 kts | 296° |
| 2026-04-23 20:39 | 61.33052 | -149.88377 | 7548 ft | 285 kts | 297° |
| 2026-04-23 20:40 | 61.34081 | -149.91907 | 7150 ft | 284 kts | 297° |
| 2026-04-23 20:40 | 61.35353 | -149.95058 | 6739 ft | 289 kts | 321° |
| 2026-04-23 20:40 | 61.37174 | -149.96819 | 6341 ft | 290 kts | 344° |
| 2026-04-23 20:40 | 61.39115 | -149.97928 | 5931 ft | 288 kts | 343° |
| 2026-04-23 20:41 | 61.41024 | -149.99086 | 5654 ft | 282 kts | 343° |
| 2026-04-23 20:41 | 61.42865 | -150.00285 | 5411 ft | 273 kts | 338° |
| 2026-04-23 20:41 | 61.44387 | -150.02507 | 5111 ft | 265 kts | 309° |
| 2026-04-23 20:41 | 61.45195 | -150.05818 | 4897 ft | 250 kts | 278° |
| 2026-04-23 20:42 | 61.45147 | -150.09271 | 4773 ft | 230 kts | 249° |
| 2026-04-23 20:42 | 61.44366 | -150.12024 | 4656 ft | 217 kts | 219° |
| 2026-04-23 20:42 | 61.43080 | -150.13483 | 4544 ft | 210 kts | 188° |
| 2026-04-23 20:42 | 61.41638 | -150.13531 | 4502 ft | 207 kts | 170° |
| 2026-04-23 20:43 | 61.40230 | -150.12890 | 4441 ft | 208 kts | 163° |
| 2026-04-23 20:43 | 61.38834 | -150.12093 | 4298 ft | 209 kts | 163° |
| 2026-04-23 20:43 | 61.37430 | -150.11291 | 4015 ft | 209 kts | 163° |
| 2026-04-23 20:43 | 61.36064 | -150.10516 | 3788 ft | 202 kts | 163° |
| 2026-04-23 20:44 | 61.34722 | -150.09755 | 3488 ft | 196 kts | 162° |
| 2026-04-23 20:44 | 61.33422 | -150.09020 | 3203 ft | 191 kts | 162° |
| 2026-04-23 20:44 | 61.32156 | -150.08306 | 2923 ft | 187 kts | 162° |
| 2026-04-23 20:44 | 61.30920 | -150.07607 | 2646 ft | 181 kts | 162° |
| 2026-04-23 20:45 | 61.29746 | -150.06945 | 2394 ft | 167 kts | 162° |
| 2026-04-23 20:45 | 61.28668 | -150.06338 | 2190 ft | 159 kts | 162° |
| 2026-04-23 20:45 | 61.27609 | -150.05742 | 1925 ft | 154 kts | 162° |
| 2026-04-23 20:45 | 61.26599 | -150.05174 | 1718 ft | 144 kts | 162° |
| 2026-04-23 20:46 | 61.25658 | -150.04643 | 1524 ft | 136 kts | 162° |
| 2026-04-23 20:46 | 61.24728 | -150.04105 | 1290 ft | 140 kts | 163° |
| 2026-04-23 20:46 | 61.23777 | -150.03581 | 1090 ft | 142 kts | 163° |
| 2026-04-23 20:46 | 61.22819 | -150.03030 | 880 ft | 144 kts | 163° |
| 2026-04-23 20:47 | 61.21849 | -150.02495 | 658 ft | 145 kts | 164° |
| 2026-04-23 20:47 | 61.20887 | -150.01964 | 415 ft | 141 kts | 163° |
| 2026-04-23 20:47 | 61.19943 | -150.01434 | 199 ft | 140 kts | 165° |
| 2026-04-23 20:47 | 61.19086 | -150.00957 | 145 ft | 105 kts | 165° |
| 2026-04-23 20:48 | 61.18541 | -150.00650 | 134 ft | 74 kts | 165° |
| 2026-04-23 20:48 | 61.18137 | -150.00423 | 127 ft | 52 kts | 165° |
| 2026-04-23 20:48 | 61.17900 | -150.00224 | 122 ft | 23 kts | 146° |
| 2026-04-23 20:48 | 61.17779 | -149.99992 | 118 ft | 21 kts | 134° |
| 2026-04-23 20:49 | 61.17696 | -149.99842 | 119 ft | 10 kts | 143° |
| 2026-04-23 20:49 | 61.17664 | -149.99713 | 116 ft | 13 kts | 83° |
| 2026-04-23 20:49 | 61.17693 | -149.99494 | 112 ft | 13 kts | 73° |
| 2026-04-23 20:49 | 61.17728 | -149.99289 | 106 ft | 15 kts | 70° |
| 2026-04-23 20:50 | 61.17726 | -149.99157 | 105 ft | 9 kts | 139° |
| 2026-04-23 20:50 | 61.17666 | -149.99080 | 104 ft | 11 kts | 121° |
| 2026-04-23 20:50 | 61.17677 | -149.98919 | 106 ft | 12 kts | 69° |
| 2026-04-23 20:50 | 61.17684 | -149.98767 | 107 ft | 10 kts | 122° |
| 2026-04-23 20:51 | 61.17618 | -149.98701 | 106 ft | 12 kts | 160° |
| 2026-04-23 20:51 | 61.17556 | -149.98644 | 108 ft | 7 kts | 136° |
| 2026-04-23 20:51 | 61.17542 | -149.98555 | 111 ft | 6 kts | 96° |
| 2026-04-23 20:51 | 61.17539 | -149.98481 | 112 ft | 3 kts | 96° |
| 2026-04-23 20:52 | 61.17538 | -149.98474 | 112 ft | 0 kts | 96° |
| 2026-04-23 20:52 | 61.22447 | -150.02823 | 796 ft | 144 kts | 163° |
| 2026-04-23 20:53 | 61.21348 | -150.02219 | 529 ft | 143 kts | 163° |